Time;durP1;ratioP1;P1;durP2;ratioP2;P2;SDS_P1;SDS_P2;PMS_P1;PMS_P2;Temp;Humidity;BMP_temperature;BMP_pressure;BME280_temperature;BME280_humidity;BME280_pressure;Samples;Min_cycle;Max_cycle;Signal;HPM_P1;HPM_P2
2023/10/28 00:00:50;;;;;;;44.38;18.63;;;;;;;;;;5046655;28;20055;-67
2023/10/28 00:03:16;;;;;;;49.83;21.08;;;;;;;;;;5046726;28;20055;-65
2023/10/28 00:05:43;;;;;;;51.72;22.70;;;;;;;;;;5031296;28;20099;-65
2023/10/28 00:08:09;;;;;;;56.78;23.10;;;;;;;;;;5035796;28;20045;-68
2023/10/28 00:10:36;;;;;;;50.75;21.40;;;;;;;;;;5047511;28;20741;-66
2023/10/28 00:13:04;;;;;;;45.45;20.10;;;;;;;;;;5046721;28;20075;-66
2023/10/28 00:15:30;;;;;;;45.42;21.38;;;;;;;;;;5039968;28;20732;-66
2023/10/28 00:17:57;;;;;;;49.58;20.83;;;;;;;;;;5043393;28;20128;-66
2023/10/28 00:20:24;;;;;;;44.25;21.33;;;;;;;;;;5047590;28;20048;-71
2023/10/28 00:22:53;;;;;;;47.78;20.60;;;;;;;;;;5043272;28;20049;-68
2023/10/28 00:25:25;;;;;;;52.03;20.20;;;;;;;;;;5040997;28;20559;-68
2023/10/28 00:27:54;;;;;;;48.55;21.83;;;;;;;;;;5038398;28;20238;-67
2023/10/28 00:30:23;;;;;;;44.22;21.58;;;;;;;;;;5049506;28;20045;-68
2023/10/28 00:32:53;;;;;;;45.08;20.42;;;;;;;;;;5036430;28;20052;-68
2023/10/28 00:35:21;;;;;;;44.53;20.95;;;;;;;;;;5042372;28;20616;-67
2023/10/28 00:37:48;;;;;;;52.42;21.05;;;;;;;;;;5031321;28;20410;-67
2023/10/28 00:40:15;;;;;;;47.28;21.60;;;;;;;;;;5050123;28;20053;-67
2023/10/28 00:42:42;;;;;;;45.05;21.20;;;;;;;;;;5038444;28;20441;-68
2023/10/28 00:45:11;;;;;;;48.70;21.63;;;;;;;;;;5043071;28;20136;-67
2023/10/28 00:47:38;;;;;;;55.85;20.60;;;;;;;;;;5046636;28;20497;-66
2023/10/28 00:50:12;;;;;;;55.08;22.70;;;;;;;;;;5049648;28;20045;-67
2023/10/28 00:52:39;;;;;;;49.08;20.83;;;;;;;;;;5040418;28;20055;-67
2023/10/28 00:55:10;;;;;;;48.10;21.00;;;;;;;;;;5034265;28;20050;-67
2023/10/28 00:57:38;;;;;;;43.67;19.58;;;;;;;;;;5045267;28;20639;-67
2023/10/28 01:00:07;;;;;;;50.67;21.08;;;;;;;;;;5037075;28;20053;-67
2023/10/28 01:02:40;;;;;;;47.95;20.92;;;;;;;;;;5045829;28;20049;-66
2023/10/28 01:05:13;;;;;;;42.00;21.00;;;;;;;;;;5033905;28;20552;-66
2023/10/28 01:07:49;;;;;;;45.72;18.38;;;;;;;;;;5039166;28;20080;-66
2023/10/28 01:10:29;;;;;;;44.00;19.13;;;;;;;;;;5041189;28;20041;-65
2023/10/28 01:12:56;;;;;;;43.08;19.45;;;;;;;;;;5037018;28;20103;-65
2023/10/28 01:15:23;;;;;;;39.15;18.63;;;;;;;;;;5048837;28;20494;-65
2023/10/28 01:17:49;;;;;;;44.28;18.02;;;;;;;;;;5036258;28;20045;-65
2023/10/28 01:20:16;;;;;;;37.17;17.08;;;;;;;;;;5042556;28;20049;-65
2023/10/28 01:22:43;;;;;;;38.65;17.30;;;;;;;;;;5044678;28;20124;-64
2023/10/28 01:25:09;;;;;;;35.25;17.42;;;;;;;;;;5047897;28;20098;-64
2023/10/28 01:27:36;;;;;;;35.58;17.92;;;;;;;;;;5035097;28;20041;-65
2023/10/28 01:30:03;;;;;;;37.28;17.45;;;;;;;;;;5039827;28;20129;-65
2023/10/28 01:32:30;;;;;;;42.75;17.02;;;;;;;;;;5046106;28;20053;-65
2023/10/28 01:34:56;;;;;;;35.92;17.30;;;;;;;;;;5042761;28;20053;-65
2023/10/28 01:37:23;;;;;;;41.65;17.92;;;;;;;;;;5033281;28;20166;-65
2023/10/28 01:39:51;;;;;;;33.72;16.52;;;;;;;;;;5043891;28;20045;-65
2023/10/28 01:42:19;;;;;;;30.02;14.57;;;;;;;;;;5045713;28;20049;-65
2023/10/28 01:44:46;;;;;;;36.22;15.73;;;;;;;;;;5035791;28;20052;-65
2023/10/28 01:47:13;;;;;;;39.00;16.40;;;;;;;;;;5040596;28;20657;-66
2023/10/28 01:49:40;;;;;;;39.78;17.05;;;;;;;;;;5043428;28;20049;-66
2023/10/28 01:52:09;;;;;;;33.35;14.88;;;;;;;;;;5041094;28;20619;-66
2023/10/28 01:54:36;;;;;;;31.13;15.00;;;;;;;;;;5028489;28;20688;-66
2023/10/28 01:57:06;;;;;;;29.52;14.20;;;;;;;;;;5028570;28;20056;-66
2023/10/28 01:59:33;;;;;;;30.42;14.10;;;;;;;;;;5044778;28;20145;-66
2023/10/28 02:02:03;;;;;;;36.83;15.82;;;;;;;;;;5037310;28;20051;-66
2023/10/28 02:04:33;;;;;;;32.80;15.85;;;;;;;;;;5038171;28;20139;-66
2023/10/28 02:06:59;;;;;;;27.95;13.13;;;;;;;;;;5042638;28;20076;-66
2023/10/28 02:09:27;;;;;;;33.42;14.98;;;;;;;;;;5030355;28;20052;-66
2023/10/28 02:11:54;;;;;;;30.60;15.65;;;;;;;;;;5048952;28;20055;-66
2023/10/28 02:14:23;;;;;;;30.17;15.00;;;;;;;;;;5039922;28;20211;-66
2023/10/28 02:16:49;;;;;;;33.92;14.65;;;;;;;;;;5047132;28;20053;-67
2023/10/28 02:19:17;;;;;;;26.95;14.35;;;;;;;;;;5030967;28;20675;-66
2023/10/28 02:21:44;;;;;;;27.90;13.00;;;;;;;;;;5043038;28;20068;-66
2023/10/28 02:24:10;;;;;;;33.15;15.30;;;;;;;;;;5038741;28;20088;-66
2023/10/28 02:26:36;;;;;;;28.98;14.15;;;;;;;;;;5040517;28;20049;-66
2023/10/28 02:29:03;;;;;;;27.55;13.30;;;;;;;;;;5033934;28;20051;-66
2023/10/28 02:31:29;;;;;;;29.05;14.07;;;;;;;;;;5044017;28;20103;-66
2023/10/28 02:33:56;;;;;;;26.60;14.65;;;;;;;;;;5043997;28;20053;-66
2023/10/28 02:36:22;;;;;;;27.10;14.38;;;;;;;;;;5033860;28;20052;-66
2023/10/28 02:38:48;;;;;;;30.70;15.85;;;;;;;;;;5035639;28;20049;-66
2023/10/28 02:41:15;;;;;;;27.15;14.35;;;;;;;;;;5048076;28;20045;-66
2023/10/28 02:43:42;;;;;;;33.30;16.55;;;;;;;;;;5041432;28;20045;-66
2023/10/28 02:46:08;;;;;;;31.25;14.73;;;;;;;;;;5046981;28;20049;-67
2023/10/28 02:48:35;;;;;;;32.30;15.40;;;;;;;;;;5043056;28;20048;-66
2023/10/28 02:51:05;;;;;;;29.35;13.77;;;;;;;;;;5051354;28;20132;-66
2023/10/28 02:53:32;;;;;;;29.30;14.32;;;;;;;;;;5037566;28;20053;-66
2023/10/28 02:56:01;;;;;;;34.55;16.65;;;;;;;;;;5047656;28;20448;-66
2023/10/28 02:58:28;;;;;;;29.00;14.02;;;;;;;;;;5038344;28;20075;-66
2023/10/28 03:00:56;;;;;;;31.92;13.82;;;;;;;;;;5052096;28;20049;-66
2023/10/28 03:03:23;;;;;;;29.73;14.55;;;;;;;;;;5034909;28;20112;-66
2023/10/28 03:05:50;;;;;;;41.03;16.25;;;;;;;;;;5040767;28;20077;-66
2023/10/28 03:08:19;;;;;;;31.65;14.73;;;;;;;;;;5047453;28;20065;-66
2023/10/28 03:10:45;;;;;;;35.45;15.10;;;;;;;;;;5040468;28;20459;-66
2023/10/28 03:13:12;;;;;;;34.17;15.73;;;;;;;;;;5042605;28;20046;-66
2023/10/28 03:15:39;;;;;;;34.70;15.38;;;;;;;;;;5048974;28;20410;-66
2023/10/28 03:18:05;;;;;;;36.53;16.05;;;;;;;;;;5047216;28;20540;-66
2023/10/28 03:20:32;;;;;;;39.05;16.52;;;;;;;;;;5041206;28;20591;-66
2023/10/28 03:22:58;;;;;;;36.63;18.20;;;;;;;;;;5043624;28;20045;-66
2023/10/28 03:25:26;;;;;;;40.08;17.92;;;;;;;;;;5049381;28;20057;-66
2023/10/28 03:27:52;;;;;;;37.75;17.98;;;;;;;;;;5044607;28;20080;-67
2023/10/28 03:30:19;;;;;;;38.67;17.67;;;;;;;;;;5041042;28;20049;-66
2023/10/28 03:32:46;;;;;;;39.78;17.75;;;;;;;;;;5041336;28;20096;-67
2023/10/28 03:35:13;;;;;;;37.85;16.80;;;;;;;;;;5049289;28;20525;-66
2023/10/28 03:37:39;;;;;;;43.40;18.23;;;;;;;;;;5039508;28;20045;-67
2023/10/28 03:40:06;;;;;;;41.33;17.90;;;;;;;;;;5029923;28;20121;-66
2023/10/28 03:42:32;;;;;;;38.13;17.75;;;;;;;;;;5030886;28;20048;-66
2023/10/28 03:44:59;;;;;;;42.08;18.92;;;;;;;;;;5042544;28;20049;-66
2023/10/28 03:47:26;;;;;;;36.45;17.63;;;;;;;;;;5049422;28;20094;-66
2023/10/28 03:49:53;;;;;;;32.72;16.58;;;;;;;;;;5041874;28;20072;-66
2023/10/28 03:52:20;;;;;;;30.48;15.23;;;;;;;;;;5049336;28;20048;-66
2023/10/28 03:54:46;;;;;;;34.45;15.27;;;;;;;;;;5037733;28;20072;-66
2023/10/28 03:57:13;;;;;;;36.85;15.32;;;;;;;;;;5049968;28;20477;-66
2023/10/28 03:59:39;;;;;;;32.45;15.52;;;;;;;;;;5041762;28;20045;-66
2023/10/28 04:02:05;;;;;;;29.50;14.25;;;;;;;;;;5050184;28;20516;-66
2023/10/28 04:04:32;;;;;;;29.17;13.05;;;;;;;;;;5033769;28;20075;-66
2023/10/28 04:06:59;;;;;;;27.35;12.88;;;;;;;;;;5037621;28;20075;-66
2023/10/28 04:09:26;;;;;;;23.05;12.10;;;;;;;;;;5040142;28;20168;-66
2023/10/28 04:11:52;;;;;;;26.48;12.38;;;;;;;;;;5046061;28;20075;-66
2023/10/28 04:14:18;;;;;;;30.63;11.63;;;;;;;;;;5036090;28;20049;-65
2023/10/28 04:16:45;;;;;;;25.65;13.38;;;;;;;;;;5030282;28;20049;-66
2023/10/28 04:19:12;;;;;;;29.85;12.27;;;;;;;;;;5038208;28;20045;-65
2023/10/28 04:21:38;;;;;;;26.30;12.75;;;;;;;;;;5045835;28;20041;-65
2023/10/28 04:24:07;;;;;;;28.70;11.60;;;;;;;;;;5037470;28;20559;-65
2023/10/28 04:26:33;;;;;;;28.08;12.13;;;;;;;;;;5049726;28;20120;-64
2023/10/28 04:29:00;;;;;;;29.00;13.15;;;;;;;;;;5037657;28;20060;-64
2023/10/28 04:31:27;;;;;;;27.90;13.57;;;;;;;;;;5046740;28;20102;-64
2023/10/28 04:33:53;;;;;;;25.73;12.35;;;;;;;;;;5040049;28;20488;-64
2023/10/28 04:36:20;;;;;;;23.65;11.77;;;;;;;;;;5050186;28;20055;-64
2023/10/28 04:38:46;;;;;;;24.52;11.88;;;;;;;;;;5046049;28;20056;-64
2023/10/28 04:41:12;;;;;;;24.08;11.35;;;;;;;;;;5037815;28;20387;-64
2023/10/28 04:43:39;;;;;;;27.95;12.63;;;;;;;;;;5041693;28;20049;-65
2023/10/28 04:46:06;;;;;;;21.27;11.50;;;;;;;;;;5047811;28;20049;-64
2023/10/28 04:48:38;;;;;;;24.58;11.82;;;;;;;;;;5037491;28;20045;-64
2023/10/28 04:51:05;;;;;;;23.42;12.15;;;;;;;;;;5034947;28;20049;-64
2023/10/28 04:53:31;;;;;;;26.60;13.57;;;;;;;;;;5043795;28;20494;-66
2023/10/28 04:55:58;;;;;;;30.30;13.70;;;;;;;;;;5043123;28;20083;-65
2023/10/28 04:58:26;;;;;;;28.75;13.55;;;;;;;;;;5038698;28;20076;-65
2023/10/28 05:00:52;;;;;;;28.38;12.98;;;;;;;;;;5047347;28;20120;-65
2023/10/28 05:03:19;;;;;;;39.83;14.00;;;;;;;;;;5042941;28;20069;-65
2023/10/28 05:05:46;;;;;;;20.83;10.68;;;;;;;;;;5030258;28;20053;-65
2023/10/28 05:08:13;;;;;;;26.77;12.25;;;;;;;;;;5034186;28;20073;-65
2023/10/28 05:10:41;;;;;;;25.90;12.88;;;;;;;;;;5044353;28;20060;-65
2023/10/28 05:13:10;;;;;;;20.23;10.98;;;;;;;;;;5036203;28;20052;-65
2023/10/28 05:15:36;;;;;;;25.92;12.50;;;;;;;;;;5046595;28;20053;-66
2023/10/28 05:18:03;;;;;;;22.58;10.70;;;;;;;;;;5037671;28;20041;-65
2023/10/28 05:20:33;;;;;;;15.32;8.68;;;;;;;;;;5045933;28;20508;-66
2023/10/28 05:22:59;;;;;;;14.23;8.10;;;;;;;;;;5042050;28;20053;-66
2023/10/28 05:25:25;;;;;;;9.70;5.93;;;;;;;;;;5032571;28;20053;-66
2023/10/28 05:27:52;;;;;;;9.60;5.80;;;;;;;;;;5038915;28;20048;-66
2023/10/28 05:30:18;;;;;;;6.97;5.15;;;;;;;;;;5041192;28;20052;-66
2023/10/28 05:32:44;;;;;;;7.60;4.63;;;;;;;;;;5043689;28;20559;-66
2023/10/28 05:35:13;;;;;;;10.98;4.32;;;;;;;;;;5040541;28;20505;-66
2023/10/28 05:37:39;;;;;;;8.30;4.70;;;;;;;;;;5044732;28;20566;-66
2023/10/28 05:40:10;;;;;;;8.85;5.15;;;;;;;;;;5036724;28;20053;-67
2023/10/28 05:42:37;;;;;;;9.10;5.25;;;;;;;;;;5037790;28;20125;-66
2023/10/28 05:45:04;;;;;;;10.60;5.90;;;;;;;;;;5041942;28;20045;-66
2023/10/28 05:47:30;;;;;;;8.93;5.80;;;;;;;;;;5034916;28;20718;-66
2023/10/28 05:49:57;;;;;;;9.80;5.38;;;;;;;;;;5048673;28;20041;-67
2023/10/28 05:52:23;;;;;;;8.93;5.40;;;;;;;;;;5039834;28;20049;-66
2023/10/28 05:54:50;;;;;;;25.00;12.23;;;;;;;;;;5041749;28;20494;-66
2023/10/28 05:57:16;;;;;;;13.32;5.35;;;;;;;;;;5045266;28;20486;-66
2023/10/28 05:59:43;;;;;;;10.45;4.95;;;;;;;;;;5032534;28;20516;-67
2023/10/28 06:02:09;;;;;;;12.98;6.35;;;;;;;;;;5038484;28;20409;-66
2023/10/28 06:04:37;;;;;;;10.55;5.72;;;;;;;;;;5045658;28;20041;-66
2023/10/28 06:07:03;;;;;;;12.57;6.75;;;;;;;;;;5045750;28;20056;-66
2023/10/28 06:09:29;;;;;;;13.48;6.60;;;;;;;;;;5034421;28;20060;-67
2023/10/28 06:11:56;;;;;;;10.60;6.10;;;;;;;;;;5041738;28;20773;-67
2023/10/28 06:14:22;;;;;;;10.35;6.47;;;;;;;;;;5041972;28;20069;-67
2023/10/28 06:16:49;;;;;;;11.55;6.30;;;;;;;;;;5044611;28;20045;-67
2023/10/28 06:19:17;;;;;;;14.07;6.78;;;;;;;;;;5033555;28;20045;-67
2023/10/28 06:21:43;;;;;;;15.73;8.50;;;;;;;;;;5040794;28;20045;-67
2023/10/28 06:24:09;;;;;;;11.80;6.63;;;;;;;;;;5042063;28;20049;-67
2023/10/28 06:26:36;;;;;;;9.52;6.15;;;;;;;;;;5040270;28;20045;-67
2023/10/28 06:29:02;;;;;;;12.52;7.20;;;;;;;;;;5038462;28;20045;-67
2023/10/28 06:31:29;;;;;;;13.55;7.38;;;;;;;;;;5045990;28;20079;-66
2023/10/28 06:33:55;;;;;;;14.85;7.72;;;;;;;;;;5033069;28;20056;-67
2023/10/28 06:36:21;;;;;;;12.85;7.68;;;;;;;;;;5043548;28;20140;-66
2023/10/28 06:38:48;;;;;;;11.73;6.53;;;;;;;;;;5034141;28;20405;-66
2023/10/28 06:41:14;;;;;;;11.85;6.57;;;;;;;;;;5040614;28;20049;-66
2023/10/28 06:43:40;;;;;;;11.02;7.20;;;;;;;;;;5031242;28;20107;-66
2023/10/28 06:46:07;;;;;;;10.77;6.75;;;;;;;;;;5046742;28;20077;-67
2023/10/28 06:48:34;;;;;;;10.88;7.45;;;;;;;;;;5040348;28;20052;-66
2023/10/28 06:51:00;;;;;;;12.10;7.03;;;;;;;;;;5044060;28;20081;-67
2023/10/28 06:53:26;;;;;;;11.07;7.20;;;;;;;;;;5028249;28;20045;-67
2023/10/28 06:55:53;;;;;;;13.85;7.00;;;;;;;;;;5045208;28;20847;-66
2023/10/28 06:58:19;;;;;;;14.30;8.27;;;;;;;;;;5035282;28;20044;-67
2023/10/28 07:00:46;;;;;;;20.63;13.18;;;;;;;;;;5042459;28;20045;-67
2023/10/28 07:03:14;;;;;;;14.57;9.05;;;;;;;;;;5029293;28;20048;-67
2023/10/28 07:05:40;;;;;;;14.25;8.20;;;;;;;;;;5041587;28;20049;-67
2023/10/28 07:08:07;;;;;;;11.55;7.35;;;;;;;;;;5045420;28;20562;-67
2023/10/28 07:10:33;;;;;;;22.15;13.57;;;;;;;;;;5037370;28;20124;-66
2023/10/28 07:13:00;;;;;;;15.40;9.77;;;;;;;;;;5034505;28;20045;-68
2023/10/28 07:15:26;;;;;;;13.43;7.55;;;;;;;;;;5045780;28;20045;-67
2023/10/28 07:17:54;;;;;;;12.25;7.07;;;;;;;;;;5041084;28;20132;-67
2023/10/28 07:20:21;;;;;;;14.82;7.43;;;;;;;;;;5039473;28;20100;-67
2023/10/28 07:22:47;;;;;;;12.82;7.53;;;;;;;;;;5040453;28;20119;-67
2023/10/28 07:25:14;;;;;;;11.98;7.05;;;;;;;;;;5031668;28;20902;-67
2023/10/28 07:27:40;;;;;;;12.48;7.20;;;;;;;;;;5042252;28;20132;-67
2023/10/28 07:30:10;;;;;;;11.70;7.63;;;;;;;;;;5041470;28;20509;-67
2023/10/28 07:32:36;;;;;;;13.10;7.75;;;;;;;;;;5037523;28;20464;-67
2023/10/28 07:35:05;;;;;;;10.35;6.75;;;;;;;;;;5031137;28;20076;-68
2023/10/28 07:37:31;;;;;;;9.18;6.45;;;;;;;;;;5036531;28;20105;-68
2023/10/28 07:39:58;;;;;;;9.95;6.35;;;;;;;;;;5044620;28;20073;-66
2023/10/28 07:42:26;;;;;;;10.73;7.18;;;;;;;;;;5047690;28;20052;-68
2023/10/28 07:44:53;;;;;;;10.82;6.82;;;;;;;;;;5038195;28;20908;-67
2023/10/28 07:47:20;;;;;;;9.80;6.07;;;;;;;;;;5048683;28;20052;-66
2023/10/28 07:49:48;;;;;;;9.00;6.35;;;;;;;;;;5044473;28;20120;-66
2023/10/28 07:52:15;;;;;;;11.10;6.75;;;;;;;;;;5042440;28;20045;-68
2023/10/28 07:54:42;;;;;;;9.75;6.20;;;;;;;;;;5036900;28;20059;-67
2023/10/28 07:57:09;;;;;;;9.40;6.07;;;;;;;;;;5048923;28;20641;-68
2023/10/28 07:59:35;;;;;;;9.55;5.60;;;;;;;;;;5040339;28;20046;-67
2023/10/28 08:02:02;;;;;;;9.45;6.32;;;;;;;;;;5032713;28;20126;-68
2023/10/28 08:04:28;;;;;;;9.93;6.55;;;;;;;;;;5037449;28;20429;-68
2023/10/28 08:06:55;;;;;;;10.25;7.13;;;;;;;;;;5035140;28;20077;-68
2023/10/28 08:09:22;;;;;;;10.02;6.20;;;;;;;;;;5044833;28;20044;-68
2023/10/28 08:11:50;;;;;;;11.70;6.20;;;;;;;;;;5042737;28;20063;-68
2023/10/28 08:14:16;;;;;;;8.95;5.63;;;;;;;;;;5036928;28;20171;-72
2023/10/28 08:16:43;;;;;;;10.05;6.47;;;;;;;;;;5042110;28;20045;-70
2023/10/28 08:19:12;;;;;;;8.95;5.88;;;;;;;;;;5041260;28;20048;-68
2023/10/28 08:21:38;;;;;;;12.10;6.65;;;;;;;;;;5040385;28;20055;-71
2023/10/28 08:24:07;;;;;;;8.52;5.95;;;;;;;;;;5032972;28;20674;-69
2023/10/28 08:26:34;;;;;;;10.23;6.28;;;;;;;;;;5041823;28;20076;-70
2023/10/28 08:29:01;;;;;;;10.10;6.65;;;;;;;;;;5045184;28;20686;-72
2023/10/28 08:31:28;;;;;;;9.77;5.70;;;;;;;;;;5040270;28;20056;-73
2023/10/28 08:33:54;;;;;;;10.50;6.45;;;;;;;;;;5038213;28;20141;-72
2023/10/28 08:36:21;;;;;;;8.82;5.50;;;;;;;;;;5049800;28;20045;-73
2023/10/28 08:38:47;;;;;;;9.40;5.97;;;;;;;;;;5033633;28;20136;-73
2023/10/28 08:41:18;;;;;;;13.38;6.32;;;;;;;;;;5047653;28;20448;-72
2023/10/28 08:43:45;;;;;;;8.75;5.82;;;;;;;;;;5040015;28;20045;-70
2023/10/28 08:46:12;;;;;;;10.15;6.50;;;;;;;;;;5042094;28;20080;-69
2023/10/28 08:48:38;;;;;;;9.95;6.15;;;;;;;;;;5038786;28;20053;-71
2023/10/28 08:51:06;;;;;;;10.73;6.70;;;;;;;;;;5040714;28;20468;-70
2023/10/28 08:53:33;;;;;;;11.02;6.93;;;;;;;;;;5046677;28;20056;-70
2023/10/28 08:56:02;;;;;;;11.98;6.93;;;;;;;;;;5042506;28;20076;-70
2023/10/28 08:58:28;;;;;;;10.43;6.95;;;;;;;;;;5038448;28;20071;-69
2023/10/28 09:00:56;;;;;;;11.48;7.32;;;;;;;;;;5036354;28;20478;-68
2023/10/28 09:03:25;;;;;;;11.23;7.15;;;;;;;;;;5028975;28;20076;-68
2023/10/28 09:05:52;;;;;;;11.93;7.50;;;;;;;;;;5044113;28;20081;-68
2023/10/28 09:08:23;;;;;;;11.57;6.63;;;;;;;;;;5039813;28;20049;-72
2023/10/28 09:10:50;;;;;;;11.85;8.20;;;;;;;;;;5049397;28;20045;-65
2023/10/28 09:13:16;;;;;;;12.15;7.40;;;;;;;;;;5036358;28;20050;-65
2023/10/28 09:15:42;;;;;;;12.52;7.38;;;;;;;;;;5032406;28;20054;-65
2023/10/28 09:18:09;;;;;;;13.75;7.93;;;;;;;;;;5042170;28;20560;-65
2023/10/28 09:20:37;;;;;;;12.60;7.95;;;;;;;;;;5045877;28;20564;-65
2023/10/28 09:23:04;;;;;;;11.20;7.32;;;;;;;;;;5040971;28;20045;-66
2023/10/28 09:25:30;;;;;;;11.45;7.18;;;;;;;;;;5031744;28;20042;-65
2023/10/28 09:27:56;;;;;;;11.55;7.75;;;;;;;;;;5032821;28;20037;-65
2023/10/28 09:30:23;;;;;;;12.95;7.82;;;;;;;;;;5041206;28;20045;-65
2023/10/28 09:32:52;;;;;;;12.85;7.68;;;;;;;;;;5042948;28;20608;-65
2023/10/28 09:35:19;;;;;;;10.77;6.68;;;;;;;;;;5045506;28;20168;-65
2023/10/28 09:37:45;;;;;;;10.27;7.13;;;;;;;;;;5047168;28;20119;-66
2023/10/28 09:40:12;;;;;;;10.63;6.18;;;;;;;;;;5037532;28;20144;-65
2023/10/28 09:42:39;;;;;;;9.50;5.82;;;;;;;;;;5044091;28;20134;-70
2023/10/28 09:45:06;;;;;;;15.15;6.72;;;;;;;;;;5040421;28;20446;-73
2023/10/28 09:48:02;;;;;;;11.85;6.50;;;;;;;;;;5030483;28;20034;-73
2023/10/28 09:50:30;;;;;;;10.93;6.63;;;;;;;;;;5035177;28;20175;-70
2023/10/28 09:52:57;;;;;;;8.73;5.93;;;;;;;;;;5032076;28;20041;-69
2023/10/28 09:55:27;;;;;;;10.00;6.20;;;;;;;;;;5043823;28;20646;-69
2023/10/28 09:58:02;;;;;;;7.38;5.18;;;;;;;;;;5042575;28;20128;-73
2023/10/28 10:00:30;;;;;;;7.88;4.90;;;;;;;;;;5027883;28;20132;-68
2023/10/28 10:03:15;;;;;;;7.90;5.63;;;;;;;;;;5031377;28;20055;-71
2023/10/28 10:05:45;;;;;;;6.65;4.78;;;;;;;;;;5045733;28;20139;-72
2023/10/28 10:08:18;;;;;;;6.40;4.82;;;;;;;;;;5039305;28;20144;-73
2023/10/28 10:10:48;;;;;;;8.50;5.20;;;;;;;;;;5048402;28;20413;-71
2023/10/28 10:13:17;;;;;;;11.07;6.03;;;;;;;;;;5046709;28;20048;-73
2023/10/28 10:16:07;;;;;;;9.80;5.10;;;;;;;;;;5044525;28;20667;-74
2023/10/28 10:18:38;;;;;;;8.07;4.70;;;;;;;;;;5040218;28;20040;-73
2023/10/28 10:21:04;;;;;;;;;;;;;;;;;;5042493;28;20052;-70
2023/10/28 10:23:53;;;;;;;6.30;4.28;;;;;;;;;;5029476;28;20544;-73
2023/10/28 10:26:20;;;;;;;6.55;4.45;;;;;;;;;;5039446;28;20049;-72
2023/10/28 10:28:47;;;;;;;7.13;5.20;;;;;;;;;;5042098;28;20870;-75
2023/10/28 10:31:17;;;;;;;6.22;4.25;;;;;;;;;;5044338;28;20379;-73
2023/10/28 10:33:43;;;;;;;5.85;4.10;;;;;;;;;;5035938;28;20119;-75
2023/10/28 10:36:21;;;;;;;6.03;4.97;;;;;;;;;;5033595;28;20059;-73
2023/10/28 10:38:47;;;;;;;13.25;5.30;;;;;;;;;;5042912;28;20055;-75
2023/10/28 10:41:23;;;;;;;6.68;4.80;;;;;;;;;;5042196;28;20041;-74
2023/10/28 10:43:50;;;;;;;10.55;5.55;;;;;;;;;;5037429;28;20049;-76
2023/10/28 10:46:16;;;;;;;14.95;5.85;;;;;;;;;;5043252;28;20470;-73
2023/10/28 10:48:44;;;;;;;8.35;5.50;;;;;;;;;;5038985;28;20048;-71
2023/10/28 10:51:14;;;;;;;12.80;5.90;;;;;;;;;;5044584;28;20065;-75
2023/10/28 10:53:44;;;;;;;10.68;5.70;;;;;;;;;;5039576;28;20136;-68
2023/10/28 10:56:20;;;;;;;13.20;6.38;;;;;;;;;;5041430;28;20072;-69
2023/10/28 10:58:46;;;;;;;9.55;6.30;;;;;;;;;;5028381;28;20554;-68
2023/10/28 11:01:13;;;;;;;10.25;6.65;;;;;;;;;;5037790;28;20048;-68
2023/10/28 11:03:39;;;;;;;10.23;5.60;;;;;;;;;;5042115;28;20080;-68
2023/10/28 11:06:06;;;;;;;10.95;5.75;;;;;;;;;;5049209;28;20387;-70
2023/10/28 11:08:33;;;;;;;7.35;5.80;;;;;;;;;;5040011;28;20144;-71
2023/10/28 11:11:03;;;;;;;11.85;7.55;;;;;;;;;;5039911;28;20049;-74
2023/10/28 11:13:30;;;;;;;10.65;5.82;;;;;;;;;;5049645;28;20060;-73
2023/10/28 11:15:56;;;;;;;8.75;6.07;;;;;;;;;;5045020;28;20075;-70
2023/10/28 11:18:23;;;;;;;12.10;6.65;;;;;;;;;;5038649;28;20565;-69
2023/10/28 11:20:50;;;;;;;9.98;6.25;;;;;;;;;;5050697;28;20049;-69
2023/10/28 11:23:17;;;;;;;10.05;6.35;;;;;;;;;;5041972;28;20398;-69
2023/10/28 11:25:47;;;;;;;20.13;8.63;;;;;;;;;;5050769;28;20249;-70
2023/10/28 11:28:13;;;;;;;13.85;8.65;;;;;;;;;;5035117;28;20053;-69
2023/10/28 11:30:48;;;;;;;14.45;7.50;;;;;;;;;;5047365;28;20042;-70
2023/10/28 11:33:15;;;;;;;14.05;7.47;;;;;;;;;;5031741;28;20084;-68
2023/10/28 11:35:41;;;;;;;13.82;7.05;;;;;;;;;;5037234;28;20053;-70
2023/10/28 11:38:10;;;;;;;13.88;6.88;;;;;;;;;;5042321;28;20041;-70
2023/10/28 11:40:36;;;;;;;17.25;7.95;;;;;;;;;;5048085;28;20045;-69
2023/10/28 11:43:05;;;;;;;11.90;8.07;;;;;;;;;;5043608;28;20037;-72
2023/10/28 11:45:31;;;;;;;9.55;6.50;;;;;;;;;;5033563;28;20221;-70
2023/10/28 11:47:57;;;;;;;13.88;8.10;;;;;;;;;;5038675;28;20037;-74
2023/10/28 11:50:24;;;;;;;16.13;7.43;;;;;;;;;;5031205;28;20052;-72
2023/10/28 11:52:50;;;;;;;20.75;10.10;;;;;;;;;;5033530;28;20397;-73
2023/10/28 11:55:17;;;;;;;12.05;7.78;;;;;;;;;;5045569;28;20084;-72
2023/10/28 11:57:44;;;;;;;13.15;6.65;;;;;;;;;;5046326;28;20414;-72
2023/10/28 12:00:11;;;;;;;9.50;6.22;;;;;;;;;;5038614;28;20075;-72
2023/10/28 12:02:37;;;;;;;9.98;7.63;;;;;;;;;;5048193;28;20064;-72
2023/10/28 12:05:04;;;;;;;10.93;6.13;;;;;;;;;;5040157;28;20087;-73
2023/10/28 12:07:31;;;;;;;11.05;5.38;;;;;;;;;;5048289;28;20460;-71
2023/10/28 12:09:57;;;;;;;14.73;6.22;;;;;;;;;;5033219;28;20083;-71
2023/10/28 12:12:23;;;;;;;8.20;4.90;;;;;;;;;;5033573;28;20088;-71
2023/10/28 12:14:50;;;;;;;8.70;5.05;;;;;;;;;;5045792;28;20055;-69
2023/10/28 12:17:17;;;;;;;9.00;4.60;;;;;;;;;;5050660;28;20059;-71
2023/10/28 12:19:43;;;;;;;8.77;3.90;;;;;;;;;;5038954;28;20045;-72
2023/10/28 12:22:10;;;;;;;13.15;5.78;;;;;;;;;;5040172;28;20648;-72
2023/10/28 12:24:36;;;;;;;9.90;3.60;;;;;;;;;;5046163;28;20128;-72
2023/10/28 12:27:03;;;;;;;8.50;3.47;;;;;;;;;;5049279;28;20045;-71
2023/10/28 12:29:29;;;;;;;7.15;3.28;;;;;;;;;;5038395;28;20056;-75
2023/10/28 12:31:56;;;;;;;8.27;3.25;;;;;;;;;;5039945;28;20092;-77
2023/10/28 12:34:22;;;;;;;8.68;3.60;;;;;;;;;;5046424;28;20102;-75
2023/10/28 12:36:49;;;;;;;6.95;2.60;;;;;;;;;;5049801;28;20055;-75
2023/10/28 12:39:16;;;;;;;8.38;4.22;;;;;;;;;;5045018;28;20050;-72
2023/10/28 12:41:44;;;;;;;13.27;3.90;;;;;;;;;;5030774;28;20053;-69
2023/10/28 12:44:11;;;;;;;5.05;2.75;;;;;;;;;;5046324;28;20880;-72
2023/10/28 12:46:38;;;;;;;4.68;2.65;;;;;;;;;;5040448;28;20045;-73
2023/10/28 12:49:05;;;;;;;8.18;2.38;;;;;;;;;;5041131;28;20534;-70
2023/10/28 12:51:33;;;;;;;8.80;2.47;;;;;;;;;;5037978;28;20132;-71
2023/10/28 12:54:01;;;;;;;9.02;2.92;;;;;;;;;;5032374;28;20053;-68
2023/10/28 12:56:27;;;;;;;18.60;3.38;;;;;;;;;;5046478;28;20057;-71
2023/10/28 12:58:54;;;;;;;12.85;2.92;;;;;;;;;;5041315;28;20053;-69
2023/10/28 13:01:20;;;;;;;11.52;3.10;;;;;;;;;;5051384;28;20049;-74
2023/10/28 13:03:47;;;;;;;5.38;2.80;;;;;;;;;;5039403;28;20128;-67
2023/10/28 13:06:13;;;;;;;6.40;2.40;;;;;;;;;;5046100;28;20041;-67
2023/10/28 13:08:40;;;;;;;4.85;1.83;;;;;;;;;;5034729;28;20625;-67
2023/10/28 13:11:07;;;;;;;5.88;2.63;;;;;;;;;;5043891;28;20456;-71
2023/10/28 13:13:33;;;;;;;5.80;2.17;;;;;;;;;;5040358;28;20063;-70
2023/10/28 13:16:00;;;;;;;3.20;2.20;;;;;;;;;;5030163;28;20046;-71
2023/10/28 13:18:27;;;;;;;22.27;3.72;;;;;;;;;;5037972;28;20397;-68
2023/10/28 13:20:57;;;;;;;10.35;2.05;;;;;;;;;;5044285;28;20084;-68
2023/10/28 13:23:24;;;;;;;7.35;2.08;;;;;;;;;;5041346;28;20044;-69
2023/10/28 13:25:50;;;;;;;5.22;1.92;;;;;;;;;;5036270;28;20132;-69
2023/10/28 13:28:17;;;;;;;7.20;1.40;;;;;;;;;;5045050;28;20504;-70
2023/10/28 13:30:43;;;;;;;5.20;1.88;;;;;;;;;;5029783;28;20130;-68
2023/10/28 13:33:12;;;;;;;7.90;1.40;;;;;;;;;;5042252;28;20037;-68
2023/10/28 13:35:39;;;;;;;7.32;2.25;;;;;;;;;;5050888;28;20051;-67
2023/10/28 13:38:05;;;;;;;7.38;1.65;;;;;;;;;;5041235;28;20083;-69
2023/10/28 13:40:33;;;;;;;2.72;1.30;;;;;;;;;;5044609;28;20119;-69
2023/10/28 13:43:00;;;;;;;4.70;2.15;;;;;;;;;;5040730;28;20131;-70
2023/10/28 13:45:26;;;;;;;9.05;3.15;;;;;;;;;;5043106;28;20037;-69
2023/10/28 13:47:53;;;;;;;2.90;1.58;;;;;;;;;;5034521;28;20046;-67
2023/10/28 13:50:19;;;;;;;4.47;1.67;;;;;;;;;;5031263;28;20132;-68
2023/10/28 13:52:47;;;;;;;7.07;2.95;;;;;;;;;;5036506;28;20352;-69
2023/10/28 13:55:14;;;;;;;4.35;3.00;;;;;;;;;;5037724;28;20438;-69
2023/10/28 13:57:40;;;;;;;4.78;2.20;;;;;;;;;;5045564;28;20045;-70
2023/10/28 14:00:10;;;;;;;6.00;2.28;;;;;;;;;;5031134;28;20144;-71
2023/10/28 14:02:37;;;;;;;4.63;2.00;;;;;;;;;;5031388;28;20570;-68
2023/10/28 14:05:04;;;;;;;6.72;2.42;;;;;;;;;;5037057;28;20103;-68
2023/10/28 14:07:31;;;;;;;5.43;2.50;;;;;;;;;;5045408;28;20716;-71
2023/10/28 14:09:57;;;;;;;5.40;2.80;;;;;;;;;;5045847;28;20507;-70
2023/10/28 14:12:25;;;;;;;5.63;2.75;;;;;;;;;;5047135;28;20087;-70
2023/10/28 14:14:51;;;;;;;3.97;1.75;;;;;;;;;;5030580;28;20053;-75
2023/10/28 14:17:17;;;;;;;5.97;2.20;;;;;;;;;;5040806;28;20156;-71
2023/10/28 14:19:44;;;;;;;11.75;2.20;;;;;;;;;;5048341;28;20064;-71
2023/10/28 14:22:10;;;;;;;3.67;2.40;;;;;;;;;;5037949;28;20087;-73
2023/10/28 14:24:37;;;;;;;14.05;3.47;;;;;;;;;;5040479;28;20052;-72
2023/10/28 14:27:03;;;;;;;11.50;2.80;;;;;;;;;;5040473;28;20121;-72
2023/10/28 14:29:30;;;;;;;3.75;2.60;;;;;;;;;;5031845;28;20107;-72